Time;durP1;ratioP1;P1;durP2;ratioP2;P2;SDS_P1;SDS_P2;PMS_P1;PMS_P2;Temp;Humidity;BMP_temperature;BMP_pressure;BME280_temperature;BME280_humidity;BME280_pressure;Samples;Min_cycle;Max_cycle;Signal;HPM_P1;HPM_P2
2022/06/14 00:00:53;;;;;;;15.97;4.60;;;;;;;10.66;78.39;102272.97;5012871;28;20030;-83
2022/06/14 00:03:30;;;;;;;18.27;5.17;;;;;;;10.65;76.74;102282.13;5012125;28;20025;-84
2022/06/14 00:06:05;;;;;;;13.73;4.75;;;;;;;10.53;77.10;102270.84;5012306;28;20036;-84
2022/06/14 00:08:30;;;;;;;12.65;4.57;;;;;;;10.43;75.95;102265.66;5012621;28;20026;-84
2022/06/14 00:10:59;;;;;;;10.63;4.70;;;;;;;10.35;78.22;102268.44;5013179;28;20512;-84
2022/06/14 00:13:25;;;;;;;12.50;4.78;;;;;;;10.41;76.56;102285.84;5012157;28;20059;-84
2022/06/14 00:15:51;;;;;;;22.63;5.25;;;;;;;10.31;76.96;102275.19;5012414;28;20029;-84
2022/06/14 00:18:17;;;;;;;16.70;5.47;;;;;;;10.18;78.08;102254.06;4992546;28;20050;-84
2022/06/14 00:20:44;;;;;;;17.83;5.13;;;;;;;10.19;79.51;102261.19;4976356;28;20471;-84
2022/06/14 00:23:10;;;;;;;15.32;6.18;;;;;;;10.14;79.84;102261.72;4960704;28;20085;-83
2022/06/14 00:25:41;;;;;;;18.83;5.28;;;;;;;10.12;78.44;102260.22;4975983;28;20034;-83
2022/06/14 00:28:11;;;;;;;16.15;5.80;;;;;;;10.21;79.83;102271.88;4976365;28;20042;-84
2022/06/14 00:30:38;;;;;;;17.92;6.20;;;;;;;10.09;80.08;102261.41;4975902;28;20062;-83
2022/06/14 00:33:04;;;;;;;17.13;5.83;;;;;;;10.08;79.57;102256.16;4993770;28;20042;-84
2022/06/14 00:35:30;;;;;;;18.65;5.20;;;;;;;10.09;80.68;102266.81;4975961;28;20022;-83
2022/06/14 00:38:00;;;;;;;15.23;5.32;;;;;;;10.10;80.51;102271.25;4976126;28;20035;-83
2022/06/14 00:40:29;;;;;;;12.75;5.30;;;;;;;10.07;80.11;102263.47;4994202;28;20023;-84
2022/06/14 00:42:55;;;;;;;13.83;5.50;;;;;;;10.02;79.03;102246.88;4977545;28;20457;-84
2022/06/14 00:45:26;;;;;;;13.88;5.05;;;;;;;10.10;78.37;102263.09;4997108;28;20057;-84
2022/06/14 00:48:06;;;;;;;17.23;5.70;;;;;;;9.98;78.05;102238.25;4979560;28;20140;-84
2022/06/14 00:50:44;;;;;;;16.83;5.77;;;;;;;10.05;79.30;102253.81;4980404;28;20038;-83
2022/06/14 00:53:21;;;;;;;14.18;5.32;;;;;;;9.97;80.09;102246.56;4980126;28;20097;-84
2022/06/14 00:55:52;;;;;;;15.70;5.13;;;;;;;9.95;80.59;102252.16;4980257;28;20026;-83
2022/06/14 00:58:35;;;;;;;19.25;5.15;;;;;;;9.96;82.25;102256.53;4979532;28;20117;-84
2022/06/14 01:01:09;;;;;;;17.38;5.28;;;;;;;9.90;83.21;102248.28;4979878;28;20055;-84
2022/06/14 01:03:41;;;;;;;15.33;5.03;;;;;;;9.85;83.07;102248.81;4980121;28;20061;-84
2022/06/14 01:06:12;;;;;;;18.38;5.82;;;;;;;9.75;82.23;102240.06;4979265;28;20046;-84
2022/06/14 01:08:44;;;;;;;15.38;5.53;;;;;;;9.72;83.13;102248.53;4996655;28;20073;-84
2022/06/14 01:11:20;;;;;;;13.40;5.85;;;;;;;9.68;84.70;102239.91;4979910;28;20076;-84
2022/06/14 01:13:46;;;;;;;13.57;5.78;;;;;;;9.68;84.39;102248.03;4996601;28;20053;-84
2022/06/14 01:16:14;;;;;;;17.20;4.93;;;;;;;9.66;85.10;102248.22;4981189;28;20049;-84
2022/06/14 01:18:44;;;;;;;12.13;5.68;;;;;;;9.66;86.31;102255.50;4998187;28;20128;-84
2022/06/14 01:21:15;;;;;;;18.10;5.47;;;;;;;9.63;85.31;102261.28;5016018;28;20025;-84
2022/06/14 01:23:43;;;;;;;14.13;5.55;;;;;;;9.59;85.26;102258.06;4999007;28;20068;-84
2022/06/14 01:26:17;;;;;;;16.88;5.68;;;;;;;9.47;84.89;102249.44;4998293;28;20044;-84
2022/06/14 01:28:48;;;;;;;13.97;5.40;;;;;;;9.53;84.39;102257.91;5016267;28;20520;-84
2022/06/14 01:31:16;;;;;;;13.98;5.28;;;;;;;9.44;84.10;102248.97;4998114;28;20029;-83
2022/06/14 01:33:56;;;;;;;15.32;4.68;;;;;;;9.34;83.44;102242.91;4997899;28;20069;-84
2022/06/14 01:36:33;;;;;;;11.60;4.68;;;;;;;9.34;84.16;102249.16;4998147;28;20089;-84
2022/06/14 01:39:06;;;;;;;12.10;4.68;;;;;;;9.31;84.32;102241.38;5015809;28;20026;-84
2022/06/14 01:42:08;;;;;;;15.20;5.23;;;;;;;9.35;84.45;102250.00;4997823;28;20462;-84
2022/06/14 01:45:05;;;;;;;14.82;4.78;;;;;;;9.29;82.46;102255.09;4997695;28;20036;-84
2022/06/14 01:47:37;;;;;;;14.65;5.05;;;;;;;9.15;82.90;102244.94;4997748;28;20112;-84
2022/06/14 01:53:28;;;;;;;14.88;4.70;;;;;;;9.11;85.17;102240.91;5015962;28;20064;-84
2022/06/14 01:56:18;;;;;;;13.00;5.77;;;;;;;9.04;85.50;102235.34;4997625;28;20030;-84
2022/06/14 01:58:45;;;;;;;14.75;4.95;;;;;;;9.12;86.61;102243.47;5025614;28;20092;-84
2022/06/14 02:01:38;;;;;;;11.85;4.70;;;;;;;9.00;84.91;102231.28;5015267;28;20034;-84
2022/06/14 02:07:12;;;;;;;12.98;4.60;;;;;;;8.95;84.26;102228.25;5015320;28;20044;-84
2022/06/14 02:09:53;;;;;;;14.77;4.97;;;;;;;8.91;85.16;102235.00;4997808;28;20033;-84
2022/06/14 02:12:29;;;;;;;10.52;4.25;;;;;;;8.80;85.28;102219.97;4998029;28;20036;-84
2022/06/14 02:15:08;;;;;;;12.07;4.85;;;;;;;8.76;85.46;102216.75;4997636;28;20052;-84
2022/06/14 02:17:43;;;;;;;11.05;4.25;;;;;;;8.72;85.10;102215.38;4997271;28;20068;-84
2022/06/14 02:20:22;;;;;;;11.93;4.70;;;;;;;8.70;84.55;102217.44;4997395;28;20034;-84
2022/06/14 02:22:56;;;;;;;11.50;4.30;;;;;;;8.62;84.37;102212.00;4998441;28;20080;-84
2022/06/14 02:25:31;;;;;;;10.93;4.57;;;;;;;8.64;85.41;102223.53;4997311;28;20038;-84
2022/06/14 02:28:10;;;;;;;13.95;4.55;;;;;;;8.59;85.28;102224.03;5015159;28;20038;-84
2022/06/14 02:30:44;;;;;;;11.60;4.68;;;;;;;8.53;85.40;102211.19;4997402;28;20037;-85
2022/06/14 02:33:19;;;;;;;10.77;4.25;;;;;;;8.47;85.69;102209.13;4997835;28;20026;-84
2022/06/14 02:35:57;;;;;;;10.27;4.20;;;;;;;8.48;86.02;102213.53;4997249;28;20026;-84
2022/06/14 02:38:46;;;;;;;13.07;4.13;;;;;;;8.51;86.34;102223.19;4986756;28;20034;-84
2022/06/14 02:41:24;;;;;;;12.35;4.43;;;;;;;8.49;86.68;102217.94;4996617;28;20470;-84
2022/06/14 02:43:53;;;;;;;9.05;3.90;;;;;;;8.47;86.15;102211.84;4997227;28;20033;-84
2022/06/14 02:46:31;;;;;;;10.85;4.25;;;;;;;8.35;86.40;102195.06;5014593;28;20117;-84
2022/06/14 02:49:23;;;;;;;10.50;4.37;;;;;;;8.40;86.36;102199.97;4996950;28;20033;-84
2022/06/14 02:51:53;;;;;;;11.13;4.32;;;;;;;8.29;86.81;102193.03;4983172;28;20033;-83
2022/06/14 02:54:48;;;;;;;11.43;4.07;;;;;;;8.30;87.89;102201.97;5014379;28;20057;-83
2022/06/14 02:57:39;;;;;;;11.90;4.38;;;;;;;8.31;87.92;102201.84;4974071;28;20122;-84
2022/06/14 03:00:12;;;;;;;13.63;4.63;;;;;;;8.33;89.54;102194.38;4976101;28;20033;-83
2022/06/14 03:02:53;;;;;;;10.30;3.90;;;;;;;8.40;88.92;102206.22;4996941;28;20120;-84
2022/06/14 03:06:10;;;;;;;11.93;4.45;;;;;;;8.36;88.94;102207.56;4996383;28;20037;-84
2022/06/14 03:08:58;;;;;;;11.70;4.18;;;;;;;8.37;88.74;102200.28;4980716;28;20073;-84
2022/06/14 03:11:29;;;;;;;11.60;3.65;;;;;;;8.34;88.14;102209.63;4997035;28;20124;-84
2022/06/14 03:14:19;;;;;;;9.93;4.38;;;;;;;8.32;87.05;102216.19;4996803;28;20037;-84
2022/06/14 03:17:00;;;;;;;9.47;4.07;;;;;;;8.33;88.07;102217.91;5014004;28;20058;-84
2022/06/14 03:19:39;;;;;;;11.02;4.00;;;;;;;8.31;88.75;102212.66;4989235;28;20032;-84
2022/06/14 03:22:24;;;;;;;11.20;3.83;;;;;;;8.36;89.61;102209.44;5014581;28;20030;-84
2022/06/14 03:24:55;;;;;;;8.90;3.90;;;;;;;8.32;90.27;102210.78;4996411;28;20473;-85
2022/06/14 03:27:46;;;;;;;9.77;4.13;;;;;;;8.31;90.18;102215.34;4997293;28;20365;-84
2022/06/14 03:30:20;;;;;;;14.13;4.70;;;;;;;8.26;90.79;102213.13;4996407;28;20045;-84
2022/06/14 03:32:56;;;;;;;8.77;4.15;;;;;;;8.29;91.04;102205.72;4996596;28;20462;-84
2022/06/14 03:35:30;;;;;;;10.57;4.85;;;;;;;8.26;91.64;102204.19;5014026;28;20230;-84
2022/06/14 03:38:04;;;;;;;16.83;4.70;;;;;;;8.29;91.53;102208.41;4996582;28;20061;-84
2022/06/14 03:40:34;;;;;;;12.80;4.63;;;;;;;8.33;92.18;102210.63;4989548;28;20034;-84
2022/06/14 03:43:02;;;;;;;13.37;5.07;;;;;;;8.34;91.63;102200.63;5014265;28;20108;-84
2022/06/14 03:45:41;;;;;;;11.20;4.85;;;;;;;8.41;89.77;102204.38;4995935;28;20057;-84
2022/06/14 03:48:12;;;;;;;13.95;4.10;;;;;;;8.42;89.89;102212.31;4996585;28;20029;-84
2022/06/14 03:50:54;;;;;;;9.95;5.03;;;;;;;8.47;90.88;102221.81;4996511;28;20477;-84
2022/06/14 03:53:45;;;;;;;11.05;4.57;;;;;;;8.38;91.36;102199.28;4996482;28;20030;-84
2022/06/14 03:56:47;;;;;;;12.27;5.03;;;;;;;8.49;91.93;102212.53;4996218;28;20029;-84
2022/06/14 03:59:35;;;;;;;12.82;4.70;;;;;;;8.48;91.55;102210.81;4995940;28;20033;-84
2022/06/14 04:02:20;;;;;;;14.43;4.65;;;;;;;8.46;90.70;102220.13;4996144;28;20548;-84
2022/06/14 04:05:09;;;;;;;9.93;4.35;;;;;;;8.37;89.86;102211.13;5013928;28;20030;-84
2022/06/14 04:08:08;;;;;;;11.90;4.20;;;;;;;8.41;89.26;102216.03;5013464;28;20030;-84
2022/06/14 04:10:43;;;;;;;11.37;4.37;;;;;;;8.38;90.35;102210.94;4990233;28;20577;-84
2022/06/14 04:13:37;;;;;;;14.13;4.88;;;;;;;8.41;89.33;102216.03;5013609;28;20030;-84
2022/06/14 04:16:10;;;;;;;7.72;3.97;;;;;;;8.43;88.30;102218.59;4995480;28;20085;-84
2022/06/14 04:19:02;;;;;;;10.48;4.72;;;;;;;8.50;89.71;102233.13;4998726;28;20117;-84
2022/06/14 04:21:44;;;;;;;9.52;4.60;;;;;;;8.48;87.82;102221.66;5000101;28;20034;-84
2022/06/14 04:24:27;;;;;;;11.93;4.60;;;;;;;8.54;87.80;102209.31;4999875;28;20057;-83
2022/06/14 04:27:05;;;;;;;9.82;4.43;;;;;;;8.58;87.98;102211.50;5000242;28;20045;-83
2022/06/14 04:29:38;;;;;;;15.38;5.10;;;;;;;8.65;88.66;102218.94;4984488;28;20037;-84
2022/06/14 04:32:12;;;;;;;9.38;5.22;;;;;;;8.69;88.91;102214.88;4999671;28;20111;-84
2022/06/14 04:34:42;;;;;;;13.00;5.80;;;;;;;8.76;90.13;102214.03;4999095;28;20465;-84
2022/06/14 04:37:13;;;;;;;15.50;5.63;;;;;;;8.88;91.34;102217.25;4999517;28;20045;-84
2022/06/14 04:39:47;;;;;;;12.68;4.78;;;;;;;8.93;91.34;102220.28;5016626;28;20113;-84
2022/06/14 04:42:46;;;;;;;13.30;5.10;;;;;;;9.05;91.34;102228.03;4999500;28;20499;-84
2022/06/14 04:45:22;;;;;;;15.75;4.97;;;;;;;9.20;90.85;102234.47;4998336;28;20140;-84
2022/06/14 04:48:06;;;;;;;13.68;4.90;;;;;;;9.19;90.10;102224.66;5017147;28;20069;-84
2022/06/14 04:50:43;;;;;;;13.37;5.17;;;;;;;9.33;89.31;102233.94;4999228;28;20041;-84
2022/06/14 04:53:27;;;;;;;17.35;5.85;;;;;;;9.32;88.89;102224.13;4999480;28;20038;-84
2022/06/14 04:56:35;;;;;;;12.00;5.38;;;;;;;9.44;88.55;102230.84;5016445;28;20034;-84
2022/06/14 04:59:16;;;;;;;13.85;5.40;;;;;;;9.56;89.01;102230.47;5007232;28;20141;-84
2022/06/14 05:01:55;;;;;;;14.50;5.78;;;;;;;9.60;89.47;102218.28;4999176;28;20022;-84
2022/06/14 05:04:52;;;;;;;15.37;5.17;;;;;;;9.75;88.27;102234.63;4999344;28;20033;-84
2022/06/14 05:07:22;;;;;;;14.68;5.47;;;;;;;9.77;88.67;102221.75;5015242;28;20038;-84
2022/06/14 05:10:00;;;;;;;14.27;5.75;;;;;;;9.90;88.03;102232.84;4998323;28;20034;-84
2022/06/14 05:12:40;;;;;;;14.50;5.93;;;;;;;9.97;88.33;102222.16;4999324;28;20037;-82
2022/06/14 05:15:07;;;;;;;13.55;5.57;;;;;;;10.13;88.63;102232.09;5030899;28;20034;-83
2022/06/14 05:24:24;;;;;;;13.48;5.20;;;;;;;10.39;88.11;102228.19;5016015;28;20091;-88
2022/06/14 05:27:50;;;;;;;19.95;6.22;;;;;;;10.58;87.90;102230.44;4998444;28;20145;-87
2022/06/14 05:30:45;;;;;;;14.63;5.05;;;;;;;10.68;88.00;102241.03;5015150;28;20394;-88
2022/06/14 05:33:59;;;;;;;10.70;4.53;;;;;;;10.76;86.50;102227.38;4999096;28;20091;-87
2022/06/14 05:37:19;;;;;;;13.73;5.53;;;;;;;10.80;86.34;102226.00;4965321;28;20378;-88
2022/06/14 05:39:59;;;;;;;14.20;4.82;;;;;;;10.90;86.08;102223.03;4975873;28;20044;-88
2022/06/14 05:42:40;;;;;;;13.00;4.47;;;;;;;11.02;85.46;102227.00;5013964;28;20030;-88
2022/06/14 05:45:26;;;;;;;13.15;4.45;;;;;;;11.12;85.35;102229.44;5030146;28;20569;-87
2022/06/14 05:48:21;;;;;;;14.67;4.70;;;;;;;11.23;85.52;102228.13;4998089;28;20041;-86
2022/06/14 05:50:52;;;;;;;13.80;4.22;;;;;;;11.29;84.07;102230.09;4968937;28;20033;-86
2022/06/14 05:53:34;;;;;;;13.95;4.32;;;;;;;11.40;84.33;102232.38;4998179;28;20026;-85
2022/06/14 05:56:15;;;;;;;9.43;3.78;;;;;;;11.50;82.88;102233.97;4997772;28;20032;-85
2022/06/14 05:59:15;;;;;;;14.63;4.10;;;;;;;11.57;81.83;102237.63;4997652;28;20036;-85
2022/06/14 06:01:55;;;;;;;8.90;3.27;;;;;;;11.56;79.97;102225.06;4997576;28;20026;-86
2022/06/14 06:04:36;;;;;;;9.57;3.15;;;;;;;11.66;79.47;102233.78;5013610;28;20096;-86
2022/06/14 06:07:13;;;;;;;13.32;3.35;;;;;;;11.70;78.64;102236.97;4998107;28;20030;-85
2022/06/14 06:09:54;;;;;;;10.35;3.53;;;;;;;11.79;79.63;102243.97;5013432;28;20026;-86
2022/06/14 06:12:39;;;;;;;;;;;;;;;;;;;;;
2022/06/14 06:15:16;;;;;;;12.33;3.23;;;;;;;11.92;77.42;102246.03;4998940;28;20060;-85
2022/06/14 06:18:04;;;;;;;11.65;3.45;;;;;;;12.01;77.68;102249.50;4996495;28;20133;-85
2022/06/14 06:21:15;;;;;;;11.07;3.30;;;;;;;12.25;77.53;102256.47;4997037;28;20038;-85
2022/06/14 06:23:58;;;;;;;12.48;3.15;;;;;;;12.23;77.81;102243.06;4996218;28;20120;-85
2022/06/14 06:26:40;;;;;;;13.15;3.38;;;;;;;12.26;75.89;102241.84;4997512;28;20168;-85
2022/06/14 06:29:48;;;;;;;9.90;3.20;;;;;;;12.40;75.33;102256.44;4996735;28;20038;-85
2022/06/14 06:32:15;;;;;;;9.10;3.50;;;;;;;12.42;73.89;102246.22;4996626;28;20056;-85
2022/06/14 06:34:46;;;;;;;11.25;3.33;;;;;;;12.46;73.64;102247.50;4996354;28;20064;-85
2022/06/14 06:37:15;;;;;;;10.90;3.58;;;;;;;12.57;73.47;102251.59;4997279;28;20094;-86
2022/06/14 06:40:19;;;;;;;8.88;3.55;;;;;;;12.53;74.25;102237.50;4996516;28;20466;-86
2022/06/14 06:43:10;;;;;;;9.47;3.00;;;;;;;12.64;73.72;102247.88;5014494;28;20041;-86
2022/06/14 06:45:47;;;;;;;11.35;3.30;;;;;;;12.76;72.33;102245.47;4997281;28;20414;-86
2022/06/14 06:48:45;;;;;;;;;;;;;;;;;;;;;
2022/06/14 06:52:12;;;;;;;9.80;2.70;;;;;;;12.99;70.62;102258.03;5015586;28;20120;-91
2022/06/14 06:55:24;;;;;;;10.13;3.78;;;;;;;13.03;71.18;102256.59;4931804;29;20038;-89
2022/06/14 06:58:21;;;;;;;10.73;3.10;;;;;;;13.01;70.34;102246.94;4930357;29;20419;-89
2022/06/14 07:07:57;;;;;;;;;;;;;;;;;;;;;
2022/06/14 07:10:56;;;;;;;5.70;2.20;;;;;;;13.26;66.27;102239.19;5014951;28;20055;-89
2022/06/14 07:13:41;;;;;;;;;;;;;;;;;;;;;
2022/06/14 07:17:01;;;;;;;;;;;;;;;;;;;;;
2022/06/14 07:19:52;;;;;;;;;;;;;;;;;;;;;
2022/06/14 07:23:36;;;;;;;;;;;;;;;;;;;;;
2022/06/14 07:26:17;;;;;;;;;;;;;;;;;;;;;
2022/06/14 07:29:16;;;;;;;;;;;;;;;;;;;;;
2022/06/14 07:35:59;;;;;;;6.88;1.70;;;;;;;13.68;60.90;102254.56;4925839;29;20176;-89
2022/06/14 07:39:20;;;;;;;4.60;1.60;;;;;;;13.72;59.46;102255.00;4917937;29;20404;-89
2022/06/14 07:42:42;;;;;;;;;;;;;;;;;;;;;
2022/06/14 07:45:29;;;;;;;4.30;1.90;;;;;;;13.85;59.56;102249.59;4909147;29;20067;-89
2022/06/14 07:48:34;;;;;;;5.75;1.85;;;;;;;13.85;59.78;102237.84;4934011;29;20044;-89
2022/06/14 07:51:24;;;;;;;5.38;1.50;;;;;;;13.85;58.48;102233.22;4933671;29;20039;-88
2022/06/14 07:54:11;;;;;;;5.70;1.52;;;;;;;13.90;58.74;102237.22;4988801;28;20049;-89
2022/06/14 07:57:06;;;;;;;5.93;2.03;;;;;;;13.93;58.51;102234.94;4986259;28;20080;-88
2022/06/14 08:03:31;;;;;;;8.77;1.92;;;;;;;14.13;59.58;102245.06;4997089;28;20080;-89
2022/06/14 08:09:25;;;;;;;8.05;2.65;;;;;;;14.15;58.50;102230.16;4994520;28;20065;-89
2022/06/14 08:15:30;;;;;;;5.33;1.60;;;;;;;14.36;59.38;102237.38;4977827;28;20374;-89
2022/06/14 08:18:40;;;;;;;8.95;1.60;;;;;;;14.35;59.28;102221.19;4998966;28;20053;-89
2022/06/14 08:24:53;;;;;;;10.90;1.65;;;;;;;14.49;57.39;102211.97;5015969;28;20063;-89
2022/06/14 08:27:50;;;;;;;6.13;1.60;;;;;;;14.57;57.67;102208.19;4993493;28;20041;-89
2022/06/14 08:30:44;;;;;;;;;;;;;;;;;;;;;
2022/06/14 08:33:49;;;;;;;4.85;1.70;;;;;;;14.79;58.11;102222.50;4955495;29;20041;-89
2022/06/14 08:36:56;;;;;;;;;;;;;;;;;;;;;
2022/06/14 08:39:47;;;;;;;;;;;;;;;;;;;;;
2022/06/14 08:43:32;;;;;;;6.13;1.15;;;;;;;15.11;57.05;102210.97;4955206;29;20057;-89
2022/06/14 08:49:51;;;;;;;;;;;;;;;;;;;;;
2022/06/14 08:53:24;;;;;;;6.35;1.77;;;;;;;15.29;55.81;102204.81;5015732;28;20033;-89
2022/06/14 08:59:45;;;;;;;6.63;1.73;;;;;;;15.60;55.57;102215.88;4935955;29;20498;-88
2022/06/14 09:02:20;;;;;;;4.93;1.63;;;;;;;15.73;53.89;102222.34;4928324;29;20471;-89
2022/06/14 09:05:09;;;;;;;6.50;1.80;;;;;;;15.82;54.33;102226.56;4918636;29;20028;-89
2022/06/14 09:08:18;;;;;;;7.05;2.08;;;;;;;15.81;55.24;102207.63;4966455;28;20038;-89
2022/06/14 09:12:07;;;;;;;5.03;2.08;;;;;;;16.00;55.32;102216.78;4997785;28;20048;-88
2022/06/14 09:15:15;;;;;;;;;;;;;;;;;;;;;
2022/06/14 09:31:01;;;;;;;7.00;1.98;;;;;;;16.64;53.95;102198.47;5956295;22;9151780;-90
2022/06/14 09:40:19;;;;;;;8.52;2.10;;;;;;;17.15;52.13;102210.25;6174718;23;20414;-90
2022/06/14 09:43:15;;;;;;;7.30;2.38;;;;;;;17.15;51.20;102191.91;6190479;23;20015;-91
2022/06/14 09:45:58;;;;;;;6.60;2.00;;;;;;;17.26;51.56;102194.94;6223349;22;20328;-90
2022/06/14 09:49:02;;;;;;;5.53;2.17;;;;;;;17.42;51.02;102182.53;6319760;22;20007;-90
2022/06/14 09:52:15;;;;;;;;;;;;;;;;;;;;;
2022/06/14 09:55:03;;;;;;;6.15;2.05;;;;;;;17.73;50.15;102188.94;6348738;22;20090;-91
2022/06/14 09:57:47;;;;;;;;;;;;;;;;;;;;;
2022/06/14 10:00:55;;;;;;;7.57;1.80;;;;;;;18.09;47.68;102176.25;6347411;22;20085;-93
2022/06/14 10:03:58;;;;;;;5.40;1.93;;;;;;;18.29;49.07;102178.66;6346412;22;20015;-90
2022/06/14 10:07:08;;;;;;;3.58;1.80;;;;;;;18.27;48.17;102169.84;6320302;22;20423;-90
2022/06/14 10:10:16;;;;;;;6.68;2.45;;;;;;;18.47;47.58;102180.50;6305331;22;20481;-90
2022/06/14 10:13:51;;;;;;;;;;;;;;;;;;;;;
2022/06/14 10:17:14;;;;;;;;;;;;;;;;;;;;;
2022/06/14 10:20:54;;;;;;;;;;;;;;;;;;;;;
2022/06/14 10:23:59;;;;;;;6.93;2.35;;;;;;;19.22;48.57;102159.72;6191212;23;20124;-90
2022/06/14 10:33:57;;;;;;;11.60;3.72;;;;;;;20.29;45.35;102150.00;6287324;22;20047;-91
2022/06/14 10:36:31;;;;;;;9.60;2.80;;;;;;;20.59;43.49;102139.75;6276735;22;20118;-91
2022/06/14 10:39:49;;;;;;;6.25;2.45;;;;;;;20.68;43.45;102129.97;6281629;22;20018;-90
2022/06/14 10:42:48;;;;;;;10.15;2.70;;;;;;;20.89;44.08;102139.41;6244043;22;20003;-90
2022/06/14 10:46:05;;;;;;;5.18;2.00;;;;;;;20.98;43.59;102118.56;6281143;22;20037;-90
2022/06/14 10:52:44;;;;;;;7.40;2.30;;;;;;;21.50;41.43;102119.22;6291746;22;19999;-91
2022/06/14 10:55:48;;;;;;;6.45;2.58;;;;;;;21.82;41.60;102124.84;6129677;23;20483;-90
2022/06/14 10:59:09;;;;;;;6.78;2.83;;;;;;;22.11;40.63;102118.22;6130255;23;20463;-90
2022/06/14 11:02:05;;;;;;;6.32;2.58;;;;;;;22.37;39.57;102111.00;6301489;22;20097;-89
2022/06/14 11:04:42;;;;;;;7.60;2.85;;;;;;;22.66;38.60;102113.41;6260988;22;20004;-89
2022/06/14 11:07:55;;;;;;;;;;;;;;;;;;;;;
2022/06/14 11:11:10;;;;;;;;;;;;;;;;;;;;;
2022/06/14 11:14:34;;;;;;;;;;;;;;;;;;;;;
2022/06/14 11:17:32;;;;;;;7.07;2.50;;;;;;;24.60;36.79;102081.78;6308692;22;20489;-89
2022/06/14 11:20:16;;;;;;;8.65;2.60;;;;;;;25.72;33.73;102093.56;6281261;22;20429;-90
2022/06/14 11:22:55;;;;;;;6.60;2.60;;;;;;;28.23;30.83;102104.88;6281813;22;20017;-83
2022/06/14 11:25:34;;;;;;;6.60;2.83;;;;;;;31.63;26.39;102079.91;6281543;22;20003;-84
2022/06/14 11:28:39;;;;;;;7.55;2.80;;;;;;;32.82;25.12;102085.94;6308987;22;20061;-84
2022/06/14 11:31:30;;;;;;;5.10;2.50;;;;;;;34.89;21.54;102083.91;6336209;22;20095;-84
2022/06/14 11:34:32;;;;;;;6.03;2.80;;;;;;;36.86;19.95;102070.91;6337806;22;20041;-84
2022/06/14 11:37:31;;;;;;;5.67;2.53;;;;;;;38.18;20.23;102060.75;6337881;22;20014;-83
2022/06/14 11:40:15;;;;;;;6.22;2.30;;;;;;;39.69;16.41;102067.06;6338952;22;20007;-84
2022/06/14 11:42:56;;;;;;;7.82;2.47;;;;;;;41.04;16.27;102038.22;6338222;22;20071;-84
2022/06/14 11:45:35;;;;;;;4.70;2.60;;;;;;;42.16;15.12;102046.31;6337956;22;20026;-84
2022/06/14 11:48:17;;;;;;;4.57;2.67;;;;;;;42.65;14.61;102036.13;6338158;22;19999;-86
2022/06/14 11:50:58;;;;;;;5.23;3.10;;;;;;;43.35;14.26;102032.66;6339923;22;20424;-86
2022/06/14 11:53:30;;;;;;;5.90;3.40;;;;;;;43.83;13.36;102024.66;6337982;22;20030;-85
2022/06/14 11:56:07;;;;;;;7.72;3.17;;;;;;;44.70;12.99;102021.88;6340075;22;19999;-85
2022/06/14 11:58:57;;;;;;;6.93;3.22;;;;;;;45.10;14.05;102025.91;6338106;22;20053;-85
2022/06/14 12:01:50;;;;;;;8.25;3.30;;;;;;;45.44;13.04;102021.38;6340015;22;20030;-85
2022/06/14 12:04:34;;;;;;;5.63;3.70;;;;;;;46.05;12.50;102017.56;6340086;22;20086;-85
2022/06/14 12:07:26;;;;;;;6.07;3.92;;;;;;;45.76;10.62;102008.59;6338400;22;20010;-85
2022/06/14 12:10:25;;;;;;;5.30;3.70;;;;;;;46.69;11.99;102024.22;6317495;22;20385;-89
2022/06/14 12:13:13;;;;;;;9.82;4.20;;;;;;;47.29;11.88;102014.78;6338286;22;20052;-85
2022/06/14 12:15:54;;;;;;;9.48;4.30;;;;;;;47.47;10.89;102017.28;6337640;22;20002;-86
2022/06/14 12:18:23;;;;;;;5.60;4.07;;;;;;;47.42;9.43;102004.22;6338187;22;20087;-85
2022/06/14 12:21:23;;;;;;;5.25;4.13;;;;;;;48.51;10.88;102002.34;6339531;22;20007;-87
2022/06/14 12:23:53;;;;;;;7.15;4.47;;;;;;;47.88;8.99;101992.88;6338178;22;20056;-85
2022/06/14 12:26:40;;;;;;;7.65;5.28;;;;;;;48.24;10.01;102003.47;6337840;22;20424;-86
2022/06/14 12:29:25;;;;;;;7.32;4.85;;;;;;;48.71;10.09;101992.72;6335183;22;20326;-86
2022/06/14 12:32:05;;;;;;;7.97;5.57;;;;;;;48.22;8.99;101985.03;6308429;22;20003;-86
2022/06/14 12:34:40;;;;;;;7.53;5.38;;;;;;;48.71;9.86;101993.56;6281096;22;20060;-86
2022/06/14 12:37:45;;;;;;;7.13;5.22;;;;;;;49.48;9.77;101984.25;6280860;22;20003;-85
2022/06/14 12:40:30;;;;;;;6.63;5.57;;;;;;;49.84;8.37;101980.97;6280385;22;20007;-86
2022/06/14 12:43:19;;;;;;;8.98;5.78;;;;;;;48.74;9.59;101978.25;6280428;22;20004;-86
2022/06/14 12:45:50;;;;;;;5.87;5.37;;;;;;;48.40;9.07;101970.97;6307993;22;20007;-86
2022/06/14 12:48:42;;;;;;;5.93;5.32;;;;;;;48.81;8.96;101980.09;6308154;22;20003;-86
2022/06/14 12:51:26;;;;;;;6.18;5.57;;;;;;;49.57;8.73;101963.38;6281243;22;20018;-86
2022/06/14 12:54:27;;;;;;;9.07;6.00;;;;;;;50.09;8.36;101967.78;6308073;22;20074;-86
2022/06/14 12:57:25;;;;;;;6.72;5.88;;;;;;;49.91;8.00;101953.16;6222361;22;20011;-86
2022/06/14 13:00:10;;;;;;;6.67;5.40;;;;;;;50.13;7.84;101967.63;6307401;22;20006;-84
2022/06/14 13:03:05;;;;;;;7.25;6.40;;;;;;;50.48;8.28;101961.84;6280295;22;20007;-85
2022/06/14 13:05:38;;;;;;;8.80;6.22;;;;;;;50.30;7.82;101956.75;6306214;22;20000;-85
2022/06/14 13:08:30;;;;;;;6.80;5.47;;;;;;;50.07;7.46;101949.31;6254325;22;20022;-85
2022/06/14 13:11:05;;;;;;;6.93;6.32;;;;;;;50.49;7.59;101952.72;6280646;22;20034;-85
2022/06/14 13:14:18;;;;;;;7.60;6.27;;;;;;;51.01;8.16;101940.88;6279663;22;20008;-85
2022/06/14 13:16:54;;;;;;;8.38;6.50;;;;;;;51.14;7.55;101935.00;6248810;22;20015;-85
2022/06/14 13:19:34;;;;;;;11.18;6.85;;;;;;;51.31;7.74;101921.91;6280222;22;20428;-85
2022/06/14 13:22:11;;;;;;;6.63;6.03;;;;;;;51.06;7.97;101931.59;6280150;22;20152;-85
2022/06/14 13:25:09;;;;;;;7.68;6.65;;;;;;;50.96;7.65;101927.06;6280636;22;20007;-85
2022/06/14 13:28:15;;;;;;;9.40;6.20;;;;;;;51.40;7.60;101930.59;6307294;22;20026;-85
2022/06/14 13:30:45;;;;;;;8.48;6.60;;;;;;;50.88;7.14;101917.81;6307850;22;20008;-84
2022/06/14 13:33:31;;;;;;;6.50;5.85;;;;;;;50.60;7.72;101923.44;6307192;22;20057;-84
2022/06/14 13:36:25;;;;;;;8.75;5.90;;;;;;;51.28;7.77;101922.03;6307453;22;19999;-85
2022/06/14 13:39:18;;;;;;;6.95;6.25;;;;;;;51.08;7.61;101917.47;6307194;22;20417;-85
2022/06/14 13:42:00;;;;;;;6.87;6.13;;;;;;;50.20;6.92;101916.25;6280022;22;20011;-85
2022/06/14 13:44:51;;;;;;;9.43;6.50;;;;;;;49.90;7.02;101911.19;6278676;22;20007;-85
2022/06/14 13:47:28;;;;;;;7.68;6.70;;;;;;;50.38;7.46;101909.84;6307311;22;20007;-85
2022/06/14 13:50:06;;;;;;;8.60;7.28;;;;;;;50.14;7.26;101900.00;6307157;22;20086;-85
2022/06/14 13:52:44;;;;;;;8.07;6.43;;;;;;;50.86;7.90;101897.28;6307387;22;20007;-85
2022/06/14 13:55:28;;;;;;;8.00;6.60;;;;;;;50.35;7.45;101901.28;6280091;22;20014;-85
2022/06/14 13:58:03;;;;;;;7.68;6.43;;;;;;;50.55;7.99;101895.19;6307946;22;20010;-85
2022/06/14 14:01:06;;;;;;;7.15;6.45;;;;;;;51.10;8.11;101888.91;6280034;22;20027;-85
2022/06/14 14:03:44;;;;;;;8.07;7.22;;;;;;;50.73;7.45;101894.50;6307272;22;20070;-85
2022/06/14 14:06:22;;;;;;;8.48;7.05;;;;;;;50.89;7.24;101884.78;6281848;22;20003;-85
2022/06/14 14:09:04;;;;;;;9.40;6.73;;;;;;;51.25;7.31;101883.31;6309808;22;20003;-85
2022/06/14 14:11:50;;;;;;;9.38;7.13;;;;;;;50.92;7.12;101880.16;6281900;22;20014;-85
2022/06/14 14:14:34;;;;;;;13.02;6.60;;;;;;;51.85;7.20;101878.31;6281868;22;20003;-85
2022/06/14 14:17:05;;;;;;;9.10;7.53;;;;;;;51.02;6.65;101876.84;6281779;22;20433;-85
2022/06/14 14:19:55;;;;;;;8.35;6.20;;;;;;;51.06;7.06;101873.81;6281869;22;20007;-85
2022/06/14 14:22:30;;;;;;;8.27;6.80;;;;;;;50.36;7.40;101866.22;6282241;22;20011;-85
2022/06/14 14:25:15;;;;;;;9.77;6.60;;;;;;;49.67;7.22;101855.53;6282120;22;20085;-85
2022/06/14 14:27:51;;;;;;;10.73;6.13;;;;;;;49.53;7.79;101864.66;6309612;22;20011;-85
2022/06/14 14:30:39;;;;;;;10.30;7.43;;;;;;;49.09;7.43;101854.56;6309309;22;20113;-85
2022/06/14 14:33:55;;;;;;;7.57;6.70;;;;;;;50.76;7.19;101861.00;6309824;22;20003;-85
2022/06/14 14:36:45;;;;;;;7.57;6.80;;;;;;;50.26;7.55;101858.78;6170205;22;20003;-85
2022/06/14 14:39:34;;;;;;;9.55;6.32;;;;;;;50.06;7.66;101846.75;6281891;22;20090;-85
2022/06/14 14:42:05;;;;;;;8.00;6.60;;;;;;;49.64;7.13;101847.81;6282157;22;20003;-85